Time;durP1;ratioP1;P1;durP2;ratioP2;P2;SDS_P1;SDS_P2;PMS_P1;PMS_P2;Temp;Humidity;BMP_temperature;BMP_pressure;BME280_temperature;BME280_humidity;BME280_pressure;Samples;Min_cycle;Max_cycle;Signal;HPM_P1;HPM_P2
2021/01/09 00:00:44;;;;;;;13.43;6.88;;;3.70;98.40;;;;;;5072711;28;20024;-68
2021/01/09 00:03:10;;;;;;;12.18;6.95;;;3.80;98.30;;;;;;5075031;28;20025;-69
2021/01/09 00:05:36;;;;;;;14.20;7.60;;;3.70;98.50;;;;;;5072076;28;20032;-70
2021/01/09 00:08:02;;;;;;;14.32;7.68;;;3.70;98.30;;;;;;5073157;28;20093;-69
2021/01/09 00:10:27;;;;;;;14.77;8.02;;;3.60;98.30;;;;;;5073229;28;20028;-69
2021/01/09 00:12:53;;;;;;;12.18;7.20;;;3.40;98.70;;;;;;5072835;28;20037;-69
2021/01/09 00:15:19;;;;;;;13.93;7.63;;;3.60;98.80;;;;;;5074247;28;20457;-69
2021/01/09 00:17:44;;;;;;;14.38;8.13;;;3.80;98.70;;;;;;5072971;28;20028;-69
2021/01/09 00:20:12;;;;;;;12.52;7.57;;;3.90;98.40;;;;;;5072711;28;20028;-70
2021/01/09 00:22:38;;;;;;;12.60;7.63;;;3.90;98.20;;;;;;5072493;28;20112;-69
2021/01/09 00:25:09;;;;;;;15.45;7.90;;;4.00;98.20;;;;;;5071143;28;20024;-70
2021/01/09 00:27:35;;;;;;;13.90;8.75;;;3.90;98.20;;;;;;5072030;28;20386;-70
2021/01/09 00:30:02;;;;;;;14.07;8.45;;;3.80;98.20;;;;;;5074095;28;20048;-70
2021/01/09 00:32:28;;;;;;;15.20;7.93;;;3.70;98.50;;;;;;5072857;28;20029;-70
2021/01/09 00:34:54;;;;;;;15.02;8.60;;;3.50;98.40;;;;;;5072694;28;20421;-71
2021/01/09 00:37:23;;;;;;;17.92;9.23;;;3.60;98.70;;;;;;5072271;28;20064;-70
2021/01/09 00:39:48;;;;;;;19.15;9.68;;;3.40;98.70;;;;;;5067661;28;20045;-69
2021/01/09 00:42:14;;;;;;;17.92;9.55;;;3.60;99.00;;;;;;5054117;28;20021;-70
2021/01/09 00:44:40;;;;;;;16.80;8.90;;;3.70;98.70;;;;;;5052551;28;20037;-70
2021/01/09 00:47:06;;;;;;;17.02;9.52;;;3.60;98.70;;;;;;5051141;28;20037;-70
2021/01/09 00:49:31;;;;;;;15.13;8.88;;;3.60;98.60;;;;;;5052329;28;20029;-70
2021/01/09 00:51:57;;;;;;;15.40;8.82;;;3.80;98.70;;;;;;5052450;28;20125;-71
2021/01/09 00:54:23;;;;;;;15.90;9.27;;;3.90;98.60;;;;;;5053319;28;20435;-69
2021/01/09 00:56:55;;;;;;;15.52;8.98;;;3.80;98.50;;;;;;5052751;28;20155;-70
2021/01/09 00:59:23;;;;;;;15.73;9.18;;;3.60;98.50;;;;;;5052242;28;20081;-69
2021/01/09 01:01:56;;;;;;;14.20;8.18;;;3.50;98.70;;;;;;5052290;28;20052;-70
2021/01/09 01:04:22;;;;;;;15.40;8.35;;;3.40;98.90;;;;;;5051896;28;20087;-70
2021/01/09 01:06:48;;;;;;;16.38;9.35;;;3.70;98.80;;;;;;5055265;28;20063;-70
2021/01/09 01:09:14;;;;;;;13.52;8.20;;;3.50;98.90;;;;;;5073190;28;20095;-69
2021/01/09 01:11:41;;;;;;;14.52;8.95;;;3.40;99.00;;;;;;5071826;28;20170;-69
2021/01/09 01:14:07;;;;;;;13.38;7.97;;;3.30;98.90;;;;;;5070785;28;20102;-71
2021/01/09 01:16:33;;;;;;;14.93;8.63;;;3.30;99.10;;;;;;5071902;28;20032;-70
2021/01/09 01:18:59;;;;;;;19.48;8.68;;;3.40;98.90;;;;;;5071813;28;20095;-70
2021/01/09 01:21:24;;;;;;;15.65;9.05;;;3.60;98.90;;;;;;5071813;28;20364;-70
2021/01/09 01:23:50;;;;;;;15.93;8.73;;;3.60;98.70;;;;;;5073455;28;20056;-70
2021/01/09 01:26:15;;;;;;;16.05;8.95;;;3.50;98.50;;;;;;5071961;28;20458;-70
2021/01/09 01:28:41;;;;;;;15.20;8.18;;;3.60;98.80;;;;;;5071641;28;20123;-70
2021/01/09 01:31:08;;;;;;;14.90;8.70;;;3.60;98.70;;;;;;5071507;28;20083;-70
2021/01/09 01:33:34;;;;;;;15.48;8.80;;;3.70;98.50;;;;;;5071613;28;20036;-71
2021/01/09 01:36:00;;;;;;;13.18;8.48;;;3.50;98.70;;;;;;5073343;28;20039;-71
2021/01/09 01:38:26;;;;;;;17.13;8.55;;;3.30;98.70;;;;;;5071457;28;20118;-69
2021/01/09 01:41:09;;;;;;;15.30;8.52;;;3.40;99.00;;;;;;5071902;28;20045;-70
2021/01/09 01:43:36;;;;;;;14.40;8.75;;;3.30;99.20;;;;;;5071608;28;20581;-71
2021/01/09 01:46:04;;;;;;;14.45;8.85;;;3.40;99.20;;;;;;5071695;28;20044;-71
2021/01/09 01:48:31;;;;;;;15.30;9.35;;;3.40;98.90;;;;;;5071371;28;20031;-70
2021/01/09 01:50:57;;;;;;;16.10;9.18;;;3.50;99.10;;;;;;5072032;28;20378;-70
2021/01/09 01:53:23;;;;;;;18.23;10.32;;;3.40;99.00;;;;;;5071577;28;20040;-70
2021/01/09 01:55:50;;;;;;;14.85;8.52;;;3.30;99.00;;;;;;5071353;28;20469;-70
2021/01/09 01:58:16;;;;;;;13.73;9.00;;;3.30;99.20;;;;;;5070409;28;20107;-70
2021/01/09 02:00:46;;;;;;;15.98;9.25;;;3.20;99.30;;;;;;5071571;28;20528;-70
2021/01/09 02:03:15;;;;;;;16.70;8.68;;;3.30;99.40;;;;;;5072934;28;20020;-70
2021/01/09 02:05:48;;;;;;;19.50;9.63;;;3.40;99.20;;;;;;5071098;28;20106;-69
2021/01/09 02:08:16;;;;;;;15.25;9.20;;;3.40;99.00;;;;;;5071293;28;20625;-70
2021/01/09 02:10:45;;;;;;;20.08;9.23;;;3.50;99.10;;;;;;5071281;28;20181;-71
2021/01/09 02:13:27;;;;;;;17.05;9.13;;;3.50;99.10;;;;;;5071168;28;20036;-70
2021/01/09 02:15:54;;;;;;;15.70;9.25;;;3.40;99.00;;;;;;5070321;28;20097;-71
2021/01/09 02:18:21;;;;;;;16.33;10.05;;;3.30;99.20;;;;;;5072909;28;20032;-71
2021/01/09 02:20:49;;;;;;;15.15;9.00;;;3.40;99.40;;;;;;5071270;28;20025;-71
2021/01/09 02:23:15;;;;;;;18.27;9.45;;;3.30;99.40;;;;;;5074251;28;20036;-71
2021/01/09 02:25:41;;;;;;;18.52;10.32;;;3.40;99.30;;;;;;5063208;28;20055;-71
2021/01/09 02:28:06;;;;;;;17.75;10.98;;;3.30;99.40;;;;;;5054994;28;20033;-70
2021/01/09 02:30:38;;;;;;;19.77;10.82;;;3.00;99.50;;;;;;5053505;28;20090;-70
2021/01/09 02:33:10;;;;;;;19.05;10.82;;;3.00;99.80;;;;;;5055366;28;20025;-70
2021/01/09 02:35:38;;;;;;;19.42;11.07;;;3.10;99.70;;;;;;5073062;28;20036;-71
2021/01/09 02:38:05;;;;;;;20.55;11.13;;;3.10;99.60;;;;;;5073557;28;20057;-71
2021/01/09 02:40:31;;;;;;;21.75;11.70;;;3.10;99.80;;;;;;5074764;28;20115;-70
2021/01/09 02:42:57;;;;;;;22.42;12.35;;;3.20;99.70;;;;;;5074686;28;20074;-70
2021/01/09 02:45:22;;;;;;;20.50;11.85;;;3.30;99.40;;;;;;5076052;28;20104;-70
2021/01/09 02:47:48;;;;;;;20.02;11.98;;;3.30;99.60;;;;;;5074479;28;20037;-70
2021/01/09 02:50:13;;;;;;;23.90;13.18;;;3.20;99.70;;;;;;5074695;28;20082;-71
2021/01/09 02:52:40;;;;;;;20.20;11.55;;;3.40;99.50;;;;;;5073074;28;20385;-70
2021/01/09 02:55:07;;;;;;;19.75;11.95;;;3.40;99.60;;;;;;5074246;28;20028;-70
2021/01/09 02:57:33;;;;;;;23.48;12.57;;;3.30;99.30;;;;;;5074580;28;20055;-71
2021/01/09 02:59:58;;;;;;;21.58;11.73;;;3.40;99.60;;;;;;5076052;28;20028;-71
2021/01/09 03:02:24;;;;;;;19.92;10.65;;;3.40;99.30;;;;;;5074472;28;20040;-70
2021/01/09 03:04:50;;;;;;;22.40;11.00;;;3.40;99.20;;;;;;5074133;28;20033;-70
2021/01/09 03:07:15;;;;;;;21.15;12.07;;;3.60;99.20;;;;;;5074364;28;20044;-70
2021/01/09 03:09:41;;;;;;;21.73;11.95;;;3.50;99.00;;;;;;5073114;28;20017;-70
2021/01/09 03:12:08;;;;;;;19.05;11.18;;;3.50;99.10;;;;;;5075748;28;20043;-70
2021/01/09 03:14:33;;;;;;;19.25;11.25;;;3.60;99.10;;;;;;5074314;28;20032;-71
2021/01/09 03:16:59;;;;;;;18.73;10.93;;;3.70;99.30;;;;;;5074295;28;20040;-70
2021/01/09 03:19:25;;;;;;;19.35;10.95;;;3.50;99.40;;;;;;5073976;28;20059;-70
2021/01/09 03:21:50;;;;;;;16.38;10.18;;;3.40;99.20;;;;;;5073817;28;20067;-70
2021/01/09 03:24:16;;;;;;;22.50;11.00;;;3.30;99.20;;;;;;5075445;28;20025;-71
2021/01/09 03:26:42;;;;;;;17.73;10.80;;;3.40;99.30;;;;;;5073608;28;20144;-71
2021/01/09 03:29:08;;;;;;;22.00;12.75;;;3.40;99.30;;;;;;5073771;28;20421;-70
2021/01/09 03:31:34;;;;;;;23.38;12.73;;;3.40;99.20;;;;;;5072737;28;20025;-70
2021/01/09 03:34:00;;;;;;;20.13;12.52;;;3.40;99.30;;;;;;5073353;28;20051;-71
2021/01/09 03:36:25;;;;;;;25.13;14.07;;;3.40;99.20;;;;;;5073747;28;20108;-70
2021/01/09 03:38:51;;;;;;;21.77;13.13;;;3.40;99.30;;;;;;5075553;28;20438;-70
2021/01/09 03:41:17;;;;;;;23.83;14.18;;;3.30;99.10;;;;;;5073358;28;20047;-70
2021/01/09 03:43:42;;;;;;;26.17;14.57;;;3.50;99.30;;;;;;5073417;28;20040;-70
2021/01/09 03:46:08;;;;;;;25.48;13.75;;;3.60;99.10;;;;;;5073403;28;20029;-71
2021/01/09 03:48:33;;;;;;;22.63;13.73;;;3.70;99.20;;;;;;5073118;28;20090;-69
2021/01/09 03:50:59;;;;;;;25.08;14.52;;;3.70;99.10;;;;;;5075113;28;20028;-70
2021/01/09 03:53:25;;;;;;;24.35;14.57;;;3.60;99.00;;;;;;5073186;28;20075;-70
2021/01/09 03:55:50;;;;;;;26.58;14.50;;;3.50;99.10;;;;;;5072302;28;20037;-69
2021/01/09 03:58:16;;;;;;;24.77;14.60;;;3.50;99.10;;;;;;5073004;28;20028;-70
2021/01/09 04:00:41;;;;;;;22.00;13.80;;;3.60;99.20;;;;;;5072965;28;20017;-69
2021/01/09 04:03:07;;;;;;;23.95;14.48;;;3.60;98.90;;;;;;5074769;28;20035;-70
2021/01/09 04:05:33;;;;;;;24.80;13.85;;;3.70;98.90;;;;;;5073084;28;20029;-69
2021/01/09 04:07:59;;;;;;;26.25;14.40;;;3.60;98.80;;;;;;5073331;28;20028;-70
2021/01/09 04:10:24;;;;;;;24.85;14.40;;;3.70;98.80;;;;;;5072945;28;20037;-70
2021/01/09 04:12:50;;;;;;;25.17;14.02;;;3.70;98.80;;;;;;5072946;28;20132;-70
2021/01/09 04:15:16;;;;;;;24.70;13.75;;;3.80;98.90;;;;;;5074551;28;20096;-69
2021/01/09 04:17:42;;;;;;;22.42;12.80;;;3.80;98.60;;;;;;5073059;28;20048;-70
2021/01/09 04:20:08;;;;;;;23.52;13.25;;;3.80;98.60;;;;;;5073121;28;20073;-69
2021/01/09 04:22:34;;;;;;;24.42;13.80;;;3.80;98.60;;;;;;5072890;28;20028;-69
2021/01/09 04:24:59;;;;;;;26.65;13.73;;;3.80;98.70;;;;;;5072684;28;20032;-70
2021/01/09 04:27:25;;;;;;;21.83;12.75;;;3.60;98.60;;;;;;5072625;28;20131;-69
2021/01/09 04:29:50;;;;;;;28.85;12.95;;;3.60;98.70;;;;;;5073986;28;20032;-69
2021/01/09 04:32:16;;;;;;;28.35;13.45;;;3.70;98.70;;;;;;5072672;28;20037;-70
2021/01/09 04:34:43;;;;;;;27.08;13.82;;;3.90;98.70;;;;;;5072340;28;20037;-71
2021/01/09 04:37:08;;;;;;;25.45;12.98;;;4.00;98.50;;;;;;5072516;28;20137;-70
2021/01/09 04:39:34;;;;;;;25.15;13.20;;;3.90;98.30;;;;;;5072467;28;20032;-70
2021/01/09 04:42:00;;;;;;;27.42;15.23;;;3.80;98.50;;;;;;5074097;28;20042;-70
2021/01/09 04:44:25;;;;;;;23.50;13.65;;;3.70;98.40;;;;;;5071622;28;20359;-70
2021/01/09 04:46:53;;;;;;;25.85;13.30;;;3.80;98.50;;;;;;5072156;28;20076;-70
2021/01/09 04:49:20;;;;;;;24.02;13.63;;;3.80;98.50;;;;;;5072396;28;20488;-71
2021/01/09 04:51:50;;;;;;;22.15;12.93;;;3.70;98.30;;;;;;5072489;28;20086;-71
2021/01/09 04:54:21;;;;;;;23.55;12.90;;;3.70;98.40;;;;;;5073860;28;20028;-71
2021/01/09 04:56:49;;;;;;;21.10;11.90;;;3.60;98.60;;;;;;5072327;28;20102;-70
2021/01/09 04:59:16;;;;;;;22.52;12.63;;;3.60;98.70;;;;;;5072423;28;20033;-70
2021/01/09 05:01:44;;;;;;;22.35;11.60;;;3.60;98.80;;;;;;5072345;28;20444;-70
2021/01/09 05:04:10;;;;;;;19.35;12.00;;;3.60;98.70;;;;;;5071917;28;20024;-70
2021/01/09 05:06:37;;;;;;;21.50;11.50;;;3.50;98.90;;;;;;5071644;28;20093;-69
2021/01/09 05:09:03;;;;;;;19.17;11.18;;;3.50;98.80;;;;;;5073488;28;20431;-68
2021/01/09 05:11:33;;;;;;;24.27;11.85;;;3.40;98.80;;;;;;5071912;28;20106;-70
2021/01/09 05:14:00;;;;;;;17.63;10.50;;;3.50;99.00;;;;;;5070910;28;20493;-70
2021/01/09 05:16:26;;;;;;;18.67;10.15;;;3.70;98.90;;;;;;5070748;28;20123;-70
2021/01/09 05:18:52;;;;;;;17.30;9.82;;;3.70;98.70;;;;;;5071598;28;20482;-70
2021/01/09 05:21:18;;;;;;;19.85;9.75;;;3.70;98.60;;;;;;5073445;28;20024;-71
2021/01/09 05:24:13;;;;;;;20.58;10.63;;;3.70;98.70;;;;;;5071477;28;20029;-70
2021/01/09 05:26:39;;;;;;;14.38;8.98;;;3.90;98.60;;;;;;5071678;28;20029;-70
2021/01/09 05:29:07;;;;;;;15.88;8.95;;;4.00;98.80;;;;;;5070703;28;20033;-71
2021/01/09 05:31:36;;;;;;;15.37;9.23;;;4.00;98.40;;;;;;5071771;28;20051;-70
2021/01/09 05:34:03;;;;;;;12.73;8.15;;;4.00;98.40;;;;;;5071785;28;20032;-69
2021/01/09 05:36:29;;;;;;;14.98;8.45;;;4.00;98.40;;;;;;5072122;28;20027;-69
2021/01/09 05:38:55;;;;;;;18.92;10.02;;;3.90;98.30;;;;;;5072066;28;20052;-70
2021/01/09 05:41:23;;;;;;;18.98;9.77;;;3.90;98.40;;;;;;5071497;28;20044;-69
2021/01/09 05:44:02;;;;;;;13.18;7.90;;;3.80;98.50;;;;;;5071920;28;20091;-70
2021/01/09 05:46:30;;;;;;;14.65;8.55;;;3.70;98.70;;;;;;5070564;28;20040;-70
2021/01/09 05:48:57;;;;;;;12.98;8.20;;;3.80;98.80;;;;;;5071531;28;20459;-71
2021/01/09 05:51:23;;;;;;;16.25;8.98;;;3.80;98.80;;;;;;5071886;28;20473;-70
2021/01/09 05:53:49;;;;;;;15.18;7.70;;;3.80;98.70;;;;;;5071814;28;20354;-69
2021/01/09 05:56:17;;;;;;;13.27;8.00;;;3.60;98.80;;;;;;5073004;28;20039;-70
2021/01/09 05:58:44;;;;;;;15.80;9.65;;;3.70;98.90;;;;;;5075426;28;20350;-70
2021/01/09 06:01:14;;;;;;;15.48;8.40;;;3.80;98.90;;;;;;5075693;28;20393;-71
2021/01/09 06:03:43;;;;;;;14.52;8.13;;;3.80;98.80;;;;;;5075607;28;20397;-70
2021/01/09 06:06:32;;;;;;;15.52;8.02;;;3.80;98.90;;;;;;5075773;28;20019;-70
2021/01/09 06:09:05;;;;;;;12.27;7.72;;;3.70;98.80;;;;;;5075428;28;20045;-70
2021/01/09 06:11:36;;;;;;;12.40;6.95;;;3.70;98.90;;;;;;5074206;28;20029;-69
2021/01/09 06:14:04;;;;;;;13.40;7.15;;;3.60;99.00;;;;;;5075246;28;20425;-70
2021/01/09 06:16:31;;;;;;;;;;;3.60;99.00;;;;;;5075952;28;20021;-70
2021/01/09 06:18:58;;;;;;;13.32;7.13;;;3.70;99.00;;;;;;5075149;28;19970;-69
2021/01/09 06:21:25;;;;;;;12.50;7.43;;;3.70;99.10;;;;;;5076497;28;20056;-69
2021/01/09 06:23:55;;;;;;;15.48;7.47;;;3.80;99.00;;;;;;5075467;28;20041;-72
2021/01/09 06:26:22;;;;;;;19.60;7.70;;;3.60;99.00;;;;;;5074402;28;20066;-70
2021/01/09 06:28:55;;;;;;;13.75;7.85;;;3.70;99.10;;;;;;5074796;28;20032;-69
2021/01/09 06:31:22;;;;;;;12.05;7.38;;;3.70;99.00;;;;;;5074992;28;20032;-70
2021/01/09 06:33:50;;;;;;;11.20;7.45;;;3.70;99.10;;;;;;5074928;28;20036;-70
2021/01/09 06:36:16;;;;;;;12.18;7.60;;;3.60;99.20;;;;;;5075439;28;20028;-70
2021/01/09 06:38:45;;;;;;;12.30;7.68;;;3.70;99.20;;;;;;5074784;28;20068;-69
2021/01/09 06:41:14;;;;;;;14.10;7.95;;;3.90;99.20;;;;;;5074721;28;20076;-69
2021/01/09 06:43:46;;;;;;;12.75;7.32;;;3.90;99.00;;;;;;5074551;28;20040;-70
2021/01/09 06:46:24;;;;;;;12.85;7.47;;;3.80;99.00;;;;;;5073516;28;20044;-70
2021/01/09 06:48:49;;;;;;;11.05;6.80;;;3.70;99.10;;;;;;5074174;28;20036;-70
2021/01/09 06:51:34;;;;;;;12.27;7.22;;;3.70;99.20;;;;;;5076381;28;20061;-70
2021/01/09 06:54:15;;;;;;;11.80;7.78;;;3.80;99.20;;;;;;5074883;28;20032;-72
2021/01/09 06:56:45;;;;;;;11.50;7.05;;;3.90;99.10;;;;;;5073503;28;20044;-70
2021/01/09 06:59:33;;;;;;;14.80;8.65;;;3.80;98.90;;;;;;5074420;28;20041;-70
2021/01/09 07:02:09;;;;;;;13.27;7.63;;;4.00;99.00;;;;;;5074069;28;20040;-71
2021/01/09 07:04:58;;;;;;;14.90;8.75;;;3.90;98.90;;;;;;5074089;28;20047;-70
2021/01/09 07:07:43;;;;;;;16.42;8.38;;;4.00;99.00;;;;;;5072305;28;20036;-71
2021/01/09 07:10:24;;;;;;;14.02;8.20;;;3.90;99.00;;;;;;5074520;28;20025;-71
2021/01/09 07:12:54;;;;;;;13.60;7.40;;;4.00;99.10;;;;;;5074274;28;20052;-71
2021/01/09 07:15:22;;;;;;;12.40;7.90;;;4.10;98.90;;;;;;5074735;28;20107;-71
2021/01/09 07:17:52;;;;;;;;;;;4.20;98.90;;;;;;5074514;28;20028;-71
2021/01/09 07:20:20;;;;;;;14.32;8.38;;;4.20;98.80;;;;;;5074139;28;19918;-70
2021/01/09 07:22:49;;;;;;;15.00;7.60;;;4.20;98.70;;;;;;5073973;28;20178;-70
2021/01/09 07:25:41;;;;;;;14.98;8.23;;;4.20;98.70;;;;;;5072561;28;20120;-70
2021/01/09 07:28:14;;;;;;;14.95;8.05;;;4.20;98.60;;;;;;5065308;28;20114;-71
2021/01/09 07:30:40;;;;;;;16.60;9.25;;;4.10;98.90;;;;;;5073598;28;20078;-71
2021/01/09 07:33:14;;;;;;;13.38;7.85;;;4.20;98.90;;;;;;5075433;28;20123;-72
2021/01/09 07:35:44;;;;;;;10.98;7.32;;;4.20;98.90;;;;;;5054369;28;20053;-69
2021/01/09 07:38:11;;;;;;;13.40;8.00;;;4.10;99.00;;;;;;5053566;28;20487;-68
2021/01/09 07:40:45;;;;;;;15.10;7.78;;;4.00;98.90;;;;;;5053659;28;20103;-69
2021/01/09 07:43:39;;;;;;;18.98;8.77;;;4.10;99.10;;;;;;5052823;28;20029;-69
2021/01/09 07:46:30;;;;;;;16.13;8.45;;;4.30;99.10;;;;;;5055563;28;20025;-69
2021/01/09 07:49:00;;;;;;;15.50;8.93;;;4.00;99.20;;;;;;5073243;28;20047;-68
2021/01/09 07:51:51;;;;;;;18.38;9.90;;;4.10;99.10;;;;;;5073155;28;20029;-69
2021/01/09 07:54:35;;;;;;;20.40;9.23;;;4.00;99.30;;;;;;5054854;28;20025;-68
2021/01/09 07:57:25;;;;;;;17.20;9.23;;;4.10;99.20;;;;;;5053744;28;20459;-70
2021/01/09 07:59:56;;;;;;;14.43;9.18;;;4.20;99.00;;;;;;5048131;28;20056;-69
2021/01/09 08:02:29;;;;;;;15.32;8.77;;;4.30;99.10;;;;;;5053191;28;20067;-69
2021/01/09 08:05:14;;;;;;;15.95;8.93;;;4.20;99.00;;;;;;5052845;28;20025;-69
2021/01/09 08:07:45;;;;;;;17.05;9.50;;;4.20;99.00;;;;;;5053063;28;20033;-69
2021/01/09 08:10:17;;;;;;;16.63;9.80;;;4.40;99.00;;;;;;5053462;28;20387;-70
2021/01/09 08:12:44;;;;;;;16.52;9.05;;;4.40;99.00;;;;;;5053344;28;20052;-70
2021/01/09 08:15:10;;;;;;;18.35;9.63;;;4.40;98.80;;;;;;5053537;28;20413;-72
2021/01/09 08:17:35;;;;;;;27.05;10.27;;;4.40;99.00;;;;;;5052783;28;20033;-75
2021/01/09 08:20:12;;;;;;;16.60;9.90;;;4.50;98.80;;;;;;5051796;28;20052;-69
2021/01/09 08:22:47;;;;;;;14.55;8.63;;;4.40;98.70;;;;;;5052849;28;20037;-70
2021/01/09 08:25:13;;;;;;;20.95;9.52;;;4.40;98.90;;;;;;5051118;28;20057;-72
2021/01/09 08:27:47;;;;;;;17.00;8.50;;;4.30;98.90;;;;;;5052302;28;20053;-73
2021/01/09 08:30:16;;;;;;;15.20;8.68;;;4.50;98.90;;;;;;5054696;28;20017;-74
2021/01/09 08:32:43;;;;;;;15.25;9.00;;;4.60;98.90;;;;;;5071825;28;20036;-73
2021/01/09 08:35:09;;;;;;;17.58;9.32;;;4.60;98.70;;;;;;5058212;28;20110;-72
2021/01/09 08:37:36;;;;;;;15.90;9.25;;;4.40;98.70;;;;;;5052342;28;20405;-72
2021/01/09 08:40:18;;;;;;;17.50;9.65;;;4.50;99.00;;;;;;5052804;28;20036;-74
2021/01/09 08:42:59;;;;;;;18.02;9.30;;;4.50;99.00;;;;;;5051617;28;20036;-71
2021/01/09 08:45:41;;;;;;;15.57;9.23;;;4.60;98.90;;;;;;5052394;28;20057;-69
2021/01/09 08:48:13;;;;;;;19.33;10.25;;;4.50;98.90;;;;;;5053663;28;20025;-69
2021/01/09 08:51:12;;;;;;;16.52;9.70;;;4.60;99.00;;;;;;5052289;28;20095;-69
2021/01/09 08:54:06;;;;;;;19.58;10.50;;;4.50;99.00;;;;;;5067645;28;20024;-69
2021/01/09 08:56:32;;;;;;;18.52;10.38;;;4.60;99.10;;;;;;5071979;28;20486;-70
2021/01/09 08:59:06;;;;;;;18.05;9.70;;;4.60;99.10;;;;;;5071833;28;20036;-69
2021/01/09 09:01:53;;;;;;;19.58;10.73;;;4.60;99.00;;;;;;5070894;28;20028;-71
2021/01/09 09:04:22;;;;;;;19.60;10.45;;;4.60;99.00;;;;;;5072104;28;20040;-71
2021/01/09 09:07:05;;;;;;;18.55;10.57;;;4.60;99.00;;;;;;5071995;28;20416;-71
2021/01/09 09:09:33;;;;;;;20.10;11.25;;;4.70;99.00;;;;;;5072466;28;20033;-71
2021/01/09 09:11:58;;;;;;;;;;;4.60;99.00;;;;;;5073835;28;20024;-70
2021/01/09 09:14:27;;;;;;;20.00;11.60;;;4.70;98.90;;;;;;5055587;28;19909;-71
2021/01/09 09:17:01;;;;;;;24.52;12.45;;;4.70;99.00;;;;;;5052006;28;20039;-72
2021/01/09 09:19:27;;;;;;;17.88;10.07;;;4.60;99.10;;;;;;5051795;28;20025;-71
2021/01/09 09:21:58;;;;;;;20.63;11.48;;;4.70;99.10;;;;;;5051882;28;20029;-71
2021/01/09 09:24:45;;;;;;;20.13;10.40;;;4.60;99.20;;;;;;5051597;28;20462;-70
2021/01/09 09:27:32;;;;;;;19.70;11.32;;;4.60;99.20;;;;;;5052348;28;20308;-70
2021/01/09 09:30:11;;;;;;;20.55;10.63;;;4.60;99.30;;;;;;5051864;28;20033;-70
2021/01/09 09:32:39;;;;;;;23.15;11.32;;;4.60;99.30;;;;;;5070312;28;20052;-74
2021/01/09 09:35:24;;;;;;;19.50;10.63;;;4.70;99.20;;;;;;5071666;28;20043;-72
2021/01/09 09:37:51;;;;;;;22.25;10.43;;;4.80;99.20;;;;;;5070677;28;20056;-73
2021/01/09 09:40:36;;;;;;;22.43;10.90;;;4.80;99.10;;;;;;5064102;28;20043;-76
2021/01/09 09:43:12;;;;;;;20.33;10.40;;;4.90;99.10;;;;;;5051535;28;20048;-74
2021/01/09 09:45:38;;;;;;;29.75;10.88;;;4.80;99.10;;;;;;5051233;28;20108;-74
2021/01/09 09:48:04;;;;;;;18.83;10.35;;;4.80;99.30;;;;;;5052994;28;20029;-74
2021/01/09 09:50:34;;;;;;;20.13;10.95;;;4.80;99.30;;;;;;5068760;28;20159;-71
2021/01/09 09:53:02;;;;;;;21.70;11.18;;;4.80;99.20;;;;;;5070945;28;20089;-69
2021/01/09 09:55:28;;;;;;;22.00;11.52;;;4.90;99.20;;;;;;5071588;28;20040;-72
2021/01/09 09:58:10;;;;;;;24.17;12.68;;;4.90;99.20;;;;;;5071728;28;20457;-71
2021/01/09 10:00:43;;;;;;;27.48;12.40;;;4.90;99.10;;;;;;5071256;28;20040;-71
2021/01/09 10:03:09;;;;;;;21.88;11.73;;;4.90;99.10;;;;;;5072905;28;20391;-74
2021/01/09 10:05:35;;;;;;;24.40;12.30;;;4.80;99.30;;;;;;5071760;28;20036;-72
2021/01/09 10:08:11;;;;;;;23.33;11.50;;;4.90;99.20;;;;;;5071292;28;20047;-71
2021/01/09 10:10:37;;;;;;;22.13;11.07;;;4.80;99.20;;;;;;5071254;28;20540;-72
2021/01/09 10:13:03;;;;;;;22.70;10.82;;;4.90;99.20;;;;;;5071110;28;20134;-72
2021/01/09 10:15:28;;;;;;;22.88;11.65;;;4.90;99.20;;;;;;5071128;28;20021;-80
2021/01/09 10:17:56;;;;;;;23.00;10.55;;;4.80;99.10;;;;;;5072910;28;20029;-76
2021/01/09 10:20:22;;;;;;;24.98;10.77;;;4.90;99.10;;;;;;5070289;28;20036;-74
2021/01/09 10:22:47;;;;;;;23.65;11.02;;;4.90;99.10;;;;;;5070122;28;20383;-74
2021/01/09 10:25:13;;;;;;;18.27;10.07;;;5.20;99.20;;;;;;5070552;28;20040;-73
2021/01/09 10:27:39;;;;;;;18.20;9.65;;;5.10;98.80;;;;;;5070845;28;20358;-73
2021/01/09 10:30:06;;;;;;;17.73;10.05;;;5.20;98.70;;;;;;5072536;28;20020;-72
2021/01/09 10:32:32;;;;;;;18.85;9.57;;;5.30;98.60;;;;;;5071144;28;20111;-70
2021/01/09 10:34:57;;;;;;;16.83;9.45;;;5.40;98.50;;;;;;5071150;28;20132;-71
2021/01/09 10:37:23;;;;;;;19.60;10.02;;;5.40;98.40;;;;;;5070784;28;20037;-72
2021/01/09 10:39:49;;;;;;;17.15;9.25;;;5.30;98.40;;;;;;5070863;28;20488;-72
2021/01/09 10:42:15;;;;;;;17.55;9.50;;;5.40;98.50;;;;;;5071423;28;20082;-70
2021/01/09 10:44:41;;;;;;;14.32;8.10;;;5.30;98.40;;;;;;5073152;28;20056;-70
2021/01/09 10:47:07;;;;;;;13.52;8.07;;;5.40;98.40;;;;;;5059243;28;20048;-70
2021/01/09 10:49:32;;;;;;;16.80;8.45;;;5.20;98.00;;;;;;5054602;28;20029;-71
2021/01/09 10:51:59;;;;;;;18.20;8.05;;;5.30;98.00;;;;;;5058643;28;20119;-72
2021/01/09 10:54:24;;;;;;;15.98;9.38;;;5.30;98.00;;;;;;5074303;28;20081;-69
2021/01/09 10:56:50;;;;;;;17.55;8.85;;;5.10;98.10;;;;;;5075677;28;20033;-71
2021/01/09 10:59:16;;;;;;;17.48;9.20;;;5.20;98.30;;;;;;5073163;28;20044;-72
2021/01/09 11:01:41;;;;;;;17.02;8.95;;;5.30;98.40;;;;;;5074233;28;20040;-70
2021/01/09 11:04:07;;;;;;;15.85;8.73;;;5.30;98.40;;;;;;5074213;28;20040;-71
2021/01/09 11:06:33;;;;;;;16.92;8.68;;;5.20;98.30;;;;;;5074063;28;20043;-71
2021/01/09 11:08:58;;;;;;;16.48;8.38;;;5.30;98.30;;;;;;5075433;28;20085;-71
2021/01/09 11:11:24;;;;;;;16.83;9.13;;;5.20;98.40;;;;;;5073878;28;20036;-71
2021/01/09 11:13:50;;;;;;;18.77;9.07;;;5.20;98.20;;;;;;5074020;28;20424;-73
2021/01/09 11:16:22;;;;;;;18.48;9.25;;;5.30;98.30;;;;;;5073910;28;20397;-77
2021/01/09 11:18:49;;;;;;;16.98;9.25;;;5.30;98.20;;;;;;5073607;28;20056;-73
2021/01/09 11:21:16;;;;;;;17.58;9.18;;;5.30;98.30;;;;;;5075400;28;20021;-72
2021/01/09 11:23:43;;;;;;;19.27;10.02;;;5.30;98.40;;;;;;5072902;28;20076;-85
2021/01/09 11:26:10;;;;;;;18.98;10.35;;;5.30;98.50;;;;;;5074081;28;20071;-82
2021/01/09 11:28:36;;;;;;;23.17;10.70;;;5.30;98.50;;;;;;5075091;28;20048;-79
2021/01/09 11:31:01;;;;;;;20.20;9.80;;;5.30;98.50;;;;;;5074406;28;20044;-76
2021/01/09 11:33:27;;;;;;;23.55;10.48;;;5.20;98.40;;;;;;5074023;28;20107;-79
2021/01/09 11:35:52;;;;;;;22.30;11.27;;;5.30;98.40;;;;;;5075604;28;20039;-76
2021/01/09 11:38:19;;;;;;;18.38;10.02;;;5.40;98.40;;;;;;5073845;28;20053;-77
2021/01/09 11:40:45;;;;;;;23.50;11.75;;;5.30;98.50;;;;;;5073853;28;20028;-76
2021/01/09 11:43:11;;;;;;;25.77;11.55;;;5.30;98.60;;;;;;5071728;28;20089;-79
2021/01/09 11:45:36;;;;;;;19.77;11.02;;;5.30;98.80;;;;;;5073694;28;20025;-77
2021/01/09 11:48:02;;;;;;;24.50;11.95;;;5.30;98.80;;;;;;5074145;28;20177;-77
2021/01/09 11:50:28;;;;;;;23.33;11.18;;;5.20;98.70;;;;;;5072188;28;20467;-78
2021/01/09 11:52:54;;;;;;;18.20;9.70;;;5.30;98.80;;;;;;5073149;28;20029;-69
2021/01/09 11:55:19;;;;;;;19.00;9.43;;;5.30;98.60;;;;;;5073361;28;20147;-70
2021/01/09 11:57:45;;;;;;;21.08;10.43;;;5.40;98.60;;;;;;5072040;28;20029;-69
2021/01/09 12:00:11;;;;;;;17.40;9.48;;;5.40;98.80;;;;;;5074613;28;20036;-73
2021/01/09 12:03:27;;;;;;;21.45;9.93;;;5.30;98.70;;;;;;5073199;28;20028;-73
2021/01/09 12:06:50;;;;;;;21.48;9.95;;;5.30;98.70;;;;;;5074427;28;20017;-72
2021/01/09 12:10:17;;;;;;;23.25;10.20;;;5.40;98.40;;;;;;5074261;28;20054;-73
2021/01/09 12:13:25;;;;;;;17.85;9.55;;;5.50;98.40;;;;;;5074638;28;20044;-72
2021/01/09 12:16:55;;;;;;;21.23;10.40;;;5.50;98.20;;;;;;5074446;28;20035;-73
2021/01/09 12:20:13;;;;;;;24.20;9.98;;;5.60;98.20;;;;;;5063357;28;20264;-72
2021/01/09 12:22:51;;;;;;;21.00;9.82;;;5.30;98.10;;;;;;5066815;28;20038;-70
2021/01/09 12:25:16;;;;;;;22.95;11.02;;;5.30;98.30;;;;;;5074502;28;20095;-71
2021/01/09 12:27:42;;;;;;;23.85;10.27;;;5.30;98.20;;;;;;5074655;28;20320;-70
2021/01/09 12:30:08;;;;;;;23.45;10.50;;;5.40;98.20;;;;;;5073756;28;20408;-71
2021/01/09 12:32:34;;;;;;;18.55;10.55;;;5.50;98.20;;;;;;5071300;28;20124;-74
2021/01/09 12:35:03;;;;;;;19.27;9.75;;;5.50;98.20;;;;;;5072075;28;20112;-72
2021/01/09 12:37:28;;;;;;;20.15;10.25;;;5.50;98.30;;;;;;5072101;28;20068;-75
2021/01/09 12:39:54;;;;;;;26.45;10.18;;;5.70;98.30;;;;;;5070732;28;20454;-74
2021/01/09 12:42:19;;;;;;;19.17;9.43;;;5.50;98.00;;;;;;5073679;28;20025;-71
2021/01/09 12:44:45;;;;;;;20.40;10.35;;;5.50;97.90;;;;;;5072186;28;20560;-72
2021/01/09 12:47:11;;;;;;;21.05;10.15;;;5.60;98.20;;;;;;5071803;28;20044;-71
2021/01/09 12:49:36;;;;;;;26.75;9.55;;;5.70;98.10;;;;;;5070882;28;20090;-71
2021/01/09 12:52:02;;;;;;;18.55;10.13;;;5.70;97.90;;;;;;5071231;28;20362;-73
2021/01/09 12:54:27;;;;;;;19.08;10.32;;;5.70;98.00;;;;;;5072225;28;20351;-74
2021/01/09 12:56:53;;;;;;;24.40;9.93;;;5.70;97.90;;;;;;5073376;28;20073;-73